createdAt,value
2023-01-19T00:01:28.999Z,8.97
2023-01-19T00:06:22.119Z,9.95
2023-01-19T00:11:19.749Z,9.60
2023-01-19T00:13:49.739Z,8.90
2023-01-19T00:16:18.147Z,8.68
2023-01-19T00:18:45.454Z,8.15
2023-01-19T00:21:14.681Z,7.90
2023-01-19T00:23:42.326Z,8.63
2023-01-19T00:26:10.204Z,8.85
2023-01-19T00:28:36.882Z,8.85
2023-01-19T00:31:03.455Z,7.68
2023-01-19T00:35:56.503Z,8.27
2023-01-19T00:38:23.052Z,8.30
2023-01-19T00:43:16.038Z,9.05
2023-01-19T00:50:35.340Z,7.90
2023-01-19T00:53:02.350Z,8.05
2023-01-19T00:55:30.649Z,7.57
2023-01-19T00:57:57.720Z,8.43
2023-01-19T01:00:24.862Z,7.32
2023-01-19T01:02:53.108Z,7.15
2023-01-19T01:05:20.432Z,7.72
2023-01-19T01:07:49.446Z,7.25
2023-01-19T01:10:21.551Z,7.03
2023-01-19T01:13:20.553Z,8.15
2023-01-19T01:18:01.945Z,8.50
2023-01-19T01:20:30.244Z,7.85
2023-01-19T01:22:57.232Z,8.15
2023-01-19T01:25:28.334Z,7.85
2023-01-19T01:27:55.474Z,8.05
2023-01-19T01:30:22.425Z,7.53
2023-01-19T01:32:48.938Z,7.32
2023-01-19T01:38:32.951Z,9.15
2023-01-19T01:43:42.760Z,8.27
2023-01-19T01:46:09.255Z,8.88
2023-01-19T01:51:26.159Z,8.23
2023-01-19T01:54:01.095Z,8.40
2023-01-19T01:56:43.456Z,8.15
2023-01-19T01:59:25.686Z,8.73
2023-01-19T02:02:15.966Z,8.95
2023-01-19T02:04:57.015Z,7.82
2023-01-19T02:07:51.597Z,8.00
2023-01-19T02:10:37.058Z,8.52
2023-01-19T02:13:21.917Z,8.43
2023-01-19T02:15:58.272Z,7.63
2023-01-19T02:18:28.187Z,7.95
2023-01-19T02:21:20.332Z,8.02
2023-01-19T02:23:53.585Z,7.82
2023-01-19T02:26:21.673Z,9.13
2023-01-19T02:28:57.368Z,9.35
2023-01-19T02:31:24.876Z,10.00
2023-01-19T02:33:52.692Z,8.75
2023-01-19T02:36:24.668Z,8.77
2023-01-19T02:38:56.030Z,8.93
2023-01-19T02:41:27.858Z,8.02
2023-01-19T02:43:57.315Z,8.65
2023-01-19T02:46:24.092Z,9.85
2023-01-19T02:48:50.533Z,9.15
2023-01-19T02:51:24.622Z,7.82
2023-01-19T02:54:32.275Z,8.50
2023-01-19T02:57:39.892Z,8.57
2023-01-19T03:00:27.987Z,7.57
2023-01-19T03:03:05.861Z,8.30
2023-01-19T03:05:53.673Z,8.93
2023-01-19T03:08:30.817Z,8.40
2023-01-19T03:14:00.888Z,8.35
2023-01-19T03:16:42.229Z,8.73
2023-01-19T03:19:22.195Z,8.70
2023-01-19T03:21:54.456Z,8.60
2023-01-19T03:24:23.240Z,7.35
2023-01-19T03:26:58.692Z,7.32
2023-01-19T03:29:29.953Z,7.30
2023-01-19T03:31:59.661Z,6.85
2023-01-19T03:34:28.448Z,7.35
2023-01-19T03:36:59.278Z,7.40
2023-01-19T03:39:26.892Z,7.22
2023-01-19T03:41:58.498Z,7.53
2023-01-19T03:44:27.200Z,7.35
2023-01-19T03:46:55.219Z,7.15
2023-01-19T03:49:21.876Z,7.00
2023-01-19T03:51:48.389Z,7.70
2023-01-19T03:56:43.683Z,6.90
2023-01-19T03:59:10.096Z,6.10
2023-01-19T04:01:36.559Z,6.45
2023-01-19T04:06:29.492Z,6.63
2023-01-19T04:11:22.245Z,7.20
2023-01-19T04:13:48.891Z,6.20
2023-01-19T04:16:19.891Z,6.70
2023-01-19T04:18:46.535Z,6.60
2023-01-19T04:23:39.277Z,6.22
2023-01-19T04:26:07.550Z,5.65
2023-01-19T04:28:36.915Z,5.45
2023-01-19T04:31:04.480Z,5.13
2023-01-19T04:33:31.037Z,5.68
2023-01-19T04:35:57.886Z,5.22
2023-01-19T04:38:25.561Z,6.03
2023-01-19T04:40:53.488Z,5.35
2023-01-19T04:43:21.061Z,5.88
2023-01-19T04:45:48.490Z,5.65
2023-01-19T04:48:15.830Z,5.50
2023-01-19T04:50:42.404Z,5.82
2023-01-19T04:55:35.150Z,4.93
2023-01-19T04:58:01.624Z,4.68
2023-01-19T05:00:28.197Z,4.85
2023-01-19T05:02:54.846Z,4.45
2023-01-19T05:05:21.822Z,5.45
2023-01-19T05:07:48.220Z,5.05
2023-01-19T05:10:14.623Z,6.00
2023-01-19T05:12:42.152Z,6.55
2023-01-19T05:15:09.861Z,6.80
2023-01-19T05:17:36.664Z,5.72
2023-01-19T05:20:04.186Z,5.53
2023-01-19T05:22:30.585Z,5.50
2023-01-19T05:24:56.992Z,5.07
2023-01-19T05:27:23.717Z,5.18
2023-01-19T05:29:50.094Z,8.15
2023-01-19T05:32:16.502Z,10.50
2023-01-19T05:34:43.018Z,10.93
2023-01-19T05:39:35.765Z,10.23
2023-01-19T05:42:02.516Z,10.35
2023-01-19T05:44:29.507Z,8.50
2023-01-19T05:46:56.085Z,7.57
2023-01-19T05:49:22.611Z,7.28
2023-01-19T05:56:42.480Z,8.52
2023-01-19T05:59:08.876Z,11.70
2023-01-19T06:01:38.943Z,10.60
2023-01-19T06:04:06.406Z,9.23
2023-01-19T06:08:59.161Z,7.43
2023-01-19T06:11:26.173Z,6.78
2023-01-19T06:13:52.659Z,6.60
2023-01-19T06:18:45.817Z,6.78
2023-01-19T06:23:40.625Z,6.07
2023-01-19T06:26:07.190Z,6.45
2023-01-19T06:28:33.795Z,6.60
2023-01-19T06:31:00.281Z,6.85
2023-01-19T06:35:54.809Z,7.57
2023-01-19T06:38:22.976Z,6.55
2023-01-19T06:40:55.251Z,6.78
2023-01-19T06:43:21.901Z,6.30
2023-01-19T06:45:48.579Z,6.20
2023-01-19T06:48:15.984Z,6.72
2023-01-19T06:50:45.160Z,7.05
2023-01-19T06:53:12.184Z,7.55
2023-01-19T06:55:39.281Z,7.15
2023-01-19T06:58:06.403Z,7.00
2023-01-19T07:00:32.812Z,6.40
2023-01-19T07:02:59.708Z,6.75
2023-01-19T07:05:26.480Z,6.43
2023-01-19T07:11:59.978Z,6.75
2023-01-19T07:14:33.183Z,6.63
2023-01-19T07:17:00.119Z,6.70
2023-01-19T07:19:26.525Z,6.88
2023-01-19T07:21:52.973Z,6.50
2023-01-19T07:24:19.506Z,6.45
2023-01-19T07:26:46.073Z,6.68
2023-01-19T07:29:12.518Z,6.65
2023-01-19T07:34:06.855Z,8.80
2023-01-19T07:36:33.514Z,6.75
2023-01-19T07:39:02.787Z,7.15
2023-01-19T07:41:29.502Z,6.47
2023-01-19T07:43:56.041Z,6.43
2023-01-19T07:48:49.136Z,5.70
2023-01-19T07:51:18.697Z,6.13
2023-01-19T07:53:46.055Z,6.40
2023-01-19T07:56:12.763Z,6.30
2023-01-19T07:58:39.758Z,5.95
2023-01-19T08:01:08.361Z,6.18
2023-01-19T08:03:34.805Z,5.25
2023-01-19T08:06:02.343Z,4.53
2023-01-19T08:08:32.972Z,5.80
2023-01-19T08:11:00.104Z,5.10
2023-01-19T08:13:27.147Z,5.25
2023-01-19T08:15:57.498Z,5.40
2023-01-19T08:18:24.151Z,5.18
2023-01-19T08:23:18.043Z,5.22
2023-01-19T08:25:45.735Z,4.85
2023-01-19T08:28:15.029Z,5.38
2023-01-19T08:30:44.305Z,5.72
2023-01-19T08:33:14.169Z,5.70
2023-01-19T08:35:42.757Z,4.85
2023-01-19T08:38:09.924Z,5.85
2023-01-19T08:40:41.861Z,6.10
2023-01-19T08:43:14.443Z,6.30
2023-01-19T08:45:48.103Z,6.13
2023-01-19T08:48:16.941Z,6.03
2023-01-19T08:50:46.588Z,5.80
2023-01-19T08:53:13.035Z,6.78
2023-01-19T08:55:39.662Z,6.90
2023-01-19T08:58:08.568Z,6.63
2023-01-19T09:00:37.908Z,6.65
2023-01-19T09:03:06.444Z,6.43
2023-01-19T09:05:37.146Z,6.05
2023-01-19T09:08:06.121Z,6.28
2023-01-19T09:10:35.841Z,6.20
2023-01-19T09:13:04.924Z,5.80
2023-01-19T09:15:33.921Z,6.18
2023-01-19T09:18:00.891Z,5.80
2023-01-19T09:20:30.801Z,5.40
2023-01-19T09:22:58.306Z,5.65
2023-01-19T09:25:24.977Z,6.05
2023-01-19T09:27:54.335Z,6.07
2023-01-19T09:30:20.972Z,7.03
2023-01-19T09:32:47.433Z,6.88
2023-01-19T09:35:13.949Z,6.22
2023-01-19T09:40:10.002Z,6.18
2023-01-19T09:42:44.609Z,5.97
2023-01-19T09:45:18.673Z,6.07
2023-01-19T09:47:48.562Z,6.85
2023-01-19T09:50:27.555Z,6.70
2023-01-19T09:53:01.311Z,6.90
2023-01-19T09:55:28.537Z,6.10
2023-01-19T09:57:55.037Z,6.20
2023-01-19T10:00:24.152Z,6.18
2023-01-19T10:03:04.935Z,6.00
2023-01-19T10:05:42.306Z,5.68
2023-01-19T10:08:40.923Z,6.20
2023-01-19T10:11:26.294Z,5.82
2023-01-19T10:13:54.120Z,5.82
2023-01-19T10:16:38.750Z,5.78
2023-01-19T10:19:29.361Z,5.38
2023-01-19T10:22:00.172Z,5.97
2023-01-19T10:24:40.168Z,6.05
2023-01-19T10:27:17.840Z,6.50
2023-01-19T10:29:45.620Z,6.63
2023-01-19T10:32:19.990Z,6.00
2023-01-19T10:34:47.547Z,5.82
2023-01-19T10:37:30.919Z,5.35
2023-01-19T10:40:02.534Z,5.18
2023-01-19T10:42:30.798Z,4.45
2023-01-19T10:44:57.815Z,3.83
2023-01-19T10:47:36.699Z,5.03
2023-01-19T10:50:24.237Z,4.57
2023-01-19T10:52:52.848Z,4.40
2023-01-19T10:55:31.715Z,4.32
2023-01-19T10:57:59.279Z,4.35
2023-01-19T11:00:30.156Z,4.60
2023-01-19T11:02:56.652Z,5.30
2023-01-19T11:05:28.932Z,4.70
2023-01-19T11:07:56.194Z,4.80
2023-01-19T11:10:28.654Z,4.90
2023-01-19T11:12:58.370Z,6.43
2023-01-19T11:15:34.844Z,4.70
2023-01-19T11:18:03.903Z,5.80
2023-01-19T11:20:48.114Z,7.32
2023-01-19T11:23:14.454Z,4.97
2023-01-19T11:25:46.273Z,5.50
2023-01-19T11:28:22.475Z,5.55
2023-01-19T11:31:02.885Z,5.33
2023-01-19T11:33:37.676Z,5.53
2023-01-19T11:36:13.978Z,5.53
2023-01-19T11:38:43.477Z,5.60
2023-01-19T11:41:22.568Z,5.55
2023-01-19T11:43:55.302Z,5.82
2023-01-19T11:46:24.961Z,4.80
2023-01-19T11:49:11.747Z,4.72
2023-01-19T11:51:56.351Z,4.83
2023-01-19T11:54:29.595Z,4.57
2023-01-19T11:57:00.198Z,6.38
2023-01-19T11:59:26.701Z,6.78
2023-01-19T12:01:56.171Z,6.97
2023-01-19T12:04:30.307Z,5.70
2023-01-19T12:06:57.557Z,5.72
2023-01-19T12:09:31.634Z,6.00
2023-01-19T12:12:07.433Z,5.25
2023-01-19T12:15:06.700Z,4.80
2023-01-19T12:17:47.550Z,4.05
2023-01-19T12:20:44.556Z,4.72
2023-01-19T12:23:10.952Z,4.40
2023-01-19T12:25:43.663Z,4.10
2023-01-19T12:28:12.918Z,4.05
2023-01-19T12:33:33.361Z,4.50
2023-01-19T12:36:33.116Z,4.00
2023-01-19T12:39:08.852Z,4.20
2023-01-19T12:41:40.943Z,4.45
2023-01-19T12:44:16.644Z,4.35
2023-01-19T12:49:26.862Z,4.95
2023-01-19T12:52:10.769Z,5.00
2023-01-19T12:54:40.447Z,5.70
2023-01-19T12:57:31.604Z,6.00
2023-01-19T13:00:00.345Z,5.80
2023-01-19T13:02:26.956Z,5.35
2023-01-19T13:08:07.216Z,6.05
2023-01-19T13:10:53.375Z,5.15
2023-01-19T13:13:30.265Z,5.63
2023-01-19T13:16:20.089Z,6.05
2023-01-19T13:18:49.603Z,5.72
2023-01-19T13:21:36.096Z,11.63
2023-01-19T13:24:12.336Z,6.80
2023-01-19T13:26:43.095Z,8.05
2023-01-19T13:29:25.697Z,5.57
2023-01-19T13:31:54.773Z,5.30
2023-01-19T13:34:24.545Z,5.75
2023-01-19T13:36:54.366Z,5.22
2023-01-19T13:39:29.056Z,5.30
2023-01-19T13:42:02.040Z,5.57
2023-01-19T13:44:34.997Z,6.43
2023-01-19T13:47:04.430Z,8.05
2023-01-19T13:49:34.963Z,5.88
2023-01-19T13:52:16.871Z,4.97
2023-01-19T13:54:53.176Z,4.80
2023-01-19T13:57:29.911Z,11.90
2023-01-19T14:00:11.897Z,8.40
2023-01-19T14:02:40.113Z,21.55
2023-01-19T14:05:23.524Z,5.07
2023-01-19T14:08:12.057Z,12.15
2023-01-19T14:10:39.961Z,7.53
2023-01-19T14:13:13.104Z,4.53
2023-01-19T14:15:40.637Z,9.95
2023-01-19T14:18:28.627Z,8.50
2023-01-19T14:21:01.231Z,10.27
2023-01-19T14:24:10.470Z,5.20
2023-01-19T14:26:51.249Z,5.10
2023-01-19T14:29:34.878Z,4.15
2023-01-19T14:32:01.456Z,4.60
2023-01-19T14:36:59.052Z,4.38
2023-01-19T14:39:28.863Z,4.32
2023-01-19T14:41:58.870Z,4.28
2023-01-19T14:44:33.719Z,4.07
2023-01-19T14:47:01.115Z,4.65
2023-01-19T14:49:34.646Z,5.00
2023-01-19T14:52:04.970Z,4.85
2023-01-19T14:54:40.449Z,5.03
2023-01-19T14:57:13.046Z,4.88
2023-01-19T14:59:40.694Z,5.00
2023-01-19T15:02:08.596Z,5.00
2023-01-19T15:04:35.096Z,5.15
2023-01-19T15:07:01.637Z,5.20
2023-01-19T15:11:54.892Z,5.25
2023-01-19T15:16:48.866Z,5.77
2023-01-19T15:19:17.767Z,5.55
2023-01-19T15:21:46.713Z,6.28
2023-01-19T15:24:14.909Z,6.75
2023-01-19T15:26:43.136Z,8.90
2023-01-19T15:29:29.492Z,7.63
2023-01-19T15:31:57.154Z,6.40
2023-01-19T15:36:50.569Z,5.40
2023-01-19T15:39:17.467Z,5.22
2023-01-19T15:41:45.179Z,5.60
2023-01-19T15:44:13.105Z,6.10
2023-01-19T15:46:40.011Z,6.82
2023-01-19T15:49:06.997Z,11.60
2023-01-19T15:51:38.533Z,12.13
2023-01-19T15:54:45.337Z,6.80
2023-01-19T15:58:14.325Z,5.68
2023-01-19T16:01:39.965Z,6.50
2023-01-19T16:05:05.928Z,6.78
2023-01-19T16:08:32.664Z,6.88
2023-01-19T16:12:00.857Z,7.03
2023-01-19T16:15:27.338Z,6.72
2023-01-19T16:18:52.304Z,5.68
2023-01-19T16:22:17.270Z,5.47
2023-01-19T16:25:40.265Z,5.35
2023-01-19T16:28:59.920Z,5.93
2023-01-19T16:32:24.886Z,5.63
2023-01-19T16:35:49.868Z,5.82
2023-01-19T16:39:15.269Z,5.85
2023-01-19T16:42:41.710Z,6.43
2023-01-19T16:46:06.883Z,6.32
2023-01-19T16:49:32.389Z,6.97
2023-01-19T16:52:57.661Z,6.05
2023-01-19T16:56:22.766Z,8.02
2023-01-19T16:59:51.531Z,7.50
2023-01-19T17:03:16.501Z,7.32
2023-01-19T17:06:46.691Z,6.18
2023-01-19T17:10:12.757Z,6.63
2023-01-19T17:13:40.787Z,7.00
2023-01-19T17:17:09.236Z,11.55
2023-01-19T17:20:34.446Z,7.78
2023-01-19T17:24:00.067Z,7.28
2023-01-19T17:27:26.066Z,7.85
2023-01-19T17:30:51.844Z,6.55
2023-01-19T17:34:17.454Z,6.47
2023-01-19T17:37:42.422Z,7.60
2023-01-19T17:41:14.569Z,7.32
2023-01-19T17:44:44.581Z,6.43
2023-01-19T17:48:09.539Z,7.78
2023-01-19T17:51:34.581Z,8.25
2023-01-19T17:54:59.801Z,10.38
2023-01-19T17:59:58.938Z,8.38
2023-01-19T18:02:26.025Z,8.25
2023-01-19T18:04:52.852Z,7.22
2023-01-19T18:07:19.454Z,7.88
2023-01-19T18:12:12.446Z,7.10
2023-01-19T18:17:05.257Z,8.48
2023-01-19T18:19:31.712Z,7.80
2023-01-19T18:21:58.198Z,8.70
2023-01-19T18:24:24.662Z,8.18
2023-01-19T18:29:19.267Z,8.85
2023-01-19T18:31:46.920Z,9.05
2023-01-19T18:34:13.444Z,9.07
2023-01-19T18:36:40.004Z,8.30
2023-01-19T18:41:36.915Z,7.82
2023-01-19T18:44:03.406Z,6.95
2023-01-19T18:46:31.193Z,7.43
2023-01-19T18:48:57.755Z,7.68
2023-01-19T18:53:52.208Z,7.85
2023-01-19T18:56:18.683Z,7.78
2023-01-19T18:58:45.560Z,7.65
2023-01-19T19:01:20.169Z,7.97
2023-01-19T19:03:47.357Z,8.52
2023-01-19T19:06:14.533Z,7.75
2023-01-19T19:08:41.129Z,6.40
2023-01-19T19:13:34.277Z,7.10
2023-01-19T19:18:31.440Z,7.05
2023-01-19T19:25:50.993Z,6.95
2023-01-19T19:28:18.257Z,7.40
2023-01-19T19:30:46.576Z,7.90
2023-01-19T19:33:13.347Z,8.25
2023-01-19T19:35:40.119Z,8.18
2023-01-19T19:38:07.123Z,7.78
2023-01-19T19:40:37.391Z,8.18
2023-01-19T19:43:04.695Z,7.57
2023-01-19T19:45:31.802Z,8.82
2023-01-19T19:47:58.584Z,8.38
2023-01-19T19:52:51.848Z,9.23
2023-01-19T19:55:18.497Z,9.70
2023-01-19T19:57:44.997Z,8.35
2023-01-19T20:00:12.568Z,7.35
2023-01-19T20:02:39.608Z,6.72
2023-01-19T20:05:06.337Z,6.38
2023-01-19T20:07:33.255Z,6.70
2023-01-19T20:10:00.038Z,6.97
2023-01-19T20:12:27.911Z,7.38
2023-01-19T20:14:54.674Z,8.10
2023-01-19T20:17:21.508Z,7.90
2023-01-19T20:20:04.910Z,7.70
2023-01-19T20:22:34.762Z,8.73
2023-01-19T20:25:01.695Z,8.80
2023-01-19T20:27:29.757Z,8.75
2023-01-19T20:31:19.640Z,8.27
2023-01-19T20:33:47.263Z,9.10
2023-01-19T20:36:14.249Z,9.65
2023-01-19T20:38:40.975Z,10.18
2023-01-19T20:41:07.896Z,13.52
2023-01-19T20:43:34.812Z,16.65
2023-01-19T20:46:01.682Z,15.00
2023-01-19T20:48:28.515Z,11.35
2023-01-19T20:53:21.169Z,12.98
2023-01-19T20:55:47.634Z,9.48
2023-01-19T20:58:14.505Z,9.77
2023-01-19T21:00:41.001Z,9.70
2023-01-19T21:05:33.947Z,8.50
2023-01-19T21:08:00.249Z,8.63
2023-01-19T21:10:26.584Z,8.45
2023-01-19T21:12:52.923Z,7.82
2023-01-19T21:15:19.376Z,7.80
2023-01-19T21:17:45.755Z,8.02
2023-01-19T21:20:12.310Z,7.78
2023-01-19T21:25:05.410Z,7.82
2023-01-19T21:27:31.754Z,8.02
2023-01-19T21:29:58.594Z,8.00
2023-01-19T21:32:24.940Z,8.68
2023-01-19T21:34:51.446Z,8.30
2023-01-19T21:39:44.159Z,7.70
2023-01-19T21:42:10.532Z,7.60
2023-01-19T21:44:37.041Z,6.97
2023-01-19T21:49:30.865Z,6.93
2023-01-19T21:51:57.216Z,7.05
2023-01-19T21:54:23.604Z,7.97
2023-01-19T21:56:50.208Z,7.50
2023-01-19T22:01:45.033Z,6.78
2023-01-19T22:04:11.741Z,7.22
2023-01-19T22:06:38.259Z,6.40
2023-01-19T22:09:05.309Z,7.10
2023-01-19T22:11:31.654Z,5.95
2023-01-19T22:13:59.656Z,6.38
2023-01-19T22:16:26.689Z,6.13
2023-01-19T22:18:56.070Z,6.45
2023-01-19T22:21:26.752Z,6.47
2023-01-19T22:23:54.344Z,6.70
2023-01-19T22:26:21.090Z,6.55
2023-01-19T22:28:47.431Z,6.80
2023-01-19T22:31:14.756Z,6.38
2023-01-19T22:33:41.414Z,5.65
2023-01-19T22:38:33.969Z,4.63
2023-01-19T22:41:00.381Z,4.72
2023-01-19T22:43:26.973Z,5.05
2023-01-19T22:48:22.983Z,4.80
2023-01-19T22:50:55.205Z,4.57
2023-01-19T22:53:21.484Z,5.18
2023-01-19T22:55:47.756Z,4.47
2023-01-19T22:58:14.105Z,4.20
2023-01-19T23:00:40.383Z,5.10
2023-01-19T23:03:07.015Z,5.18
2023-01-19T23:08:03.195Z,4.35
2023-01-19T23:10:29.814Z,4.28
2023-01-19T23:15:22.459Z,5.28
2023-01-19T23:17:52.754Z,6.20
2023-01-19T23:20:20.054Z,4.80
2023-01-19T23:22:46.328Z,4.07
2023-01-19T23:25:12.848Z,3.88
2023-01-19T23:30:05.897Z,3.30
2023-01-19T23:32:32.474Z,3.22
2023-01-19T23:34:58.773Z,3.50
2023-01-19T23:37:25.037Z,3.20
2023-01-19T23:39:51.327Z,2.92
2023-01-19T23:42:17.633Z,2.83
2023-01-19T23:44:44.090Z,2.53
2023-01-19T23:47:10.396Z,2.67
2023-01-19T23:49:36.813Z,2.47
2023-01-19T23:52:03.173Z,2.90
2023-01-19T23:54:29.531Z,2.78
2023-01-19T23:56:55.836Z,2.53
2023-01-19T23:59:22.153Z,2.30
